Jamestown, ND

7:10 PM CDT on March 26, 2015 (GMT -0500)
Leapaldt Addition | | Change Station
CLOSE
Current Station
Personal Weather Station
Location: Jamestown, ND
Elevation: 1486 ft
Nearby Weather Stations

Elev 1486 ft 46.93 °N, 98.69 °W | Updated 4 minutes ago

Clear
Clear
32.4 °F
Feels Like 26 °F
N
6.8
Wind Variable Wind from NNE

Today
High -- | Low -- °F
--% Chance of Precip.
Yesterday
High -- | Low -- °F
Precip. -- in
7:26 AM 7:55 PM
Waxing Crescent, 47% visible
Pressure 30.31 in
Visibility 10.0 miles
Clouds Clear
Windchill 26 °F
Dew Point 14 °F
Humidity 47%
Rainfall 0.00 in
Snow Depth Not available.
UV 0 out of 12
Pollen .40 out of 12
Air Quality Not available.
Flu Activity Not available.
METAR KJMS 262356Z AUTO 03012KT 10SM CLR 00/M11 A3024 RMK AO2 SLP264 T00001111 10033 20000 53007

More Conditions Fewer Conditions

Pressure 30.31 in
Visibility 10.0 miles
Clouds Clear
Windchill 26 °F
Dew Point 14 °F
Humidity 47%
Rainfall 0.00 in
Snow Depth Not available.
UV 0 out of 12
Pollen .40 out of 12
Air Quality Not available.
Flu Activity Not available.
METAR KJMS 262356Z AUTO 03012KT 10SM CLR 00/M11 A3024 RMK AO2 SLP264 T00001111 10033 20000 53007

More Conditions Fewer Conditions

10-Day Weather Forecast

Almanac

Astronomy

Mar. 26, 2015 Rise Set
Actual Time
Civil Twilight
Nautical Twilight
Astronomical Twilight
Moon
Length of Visible Light
Length of Day
Tomorrow will be .
, % of the Moon is Illuminated

Today's Extremes

State Highs State Lows

Community

WunderPhotos

Upload Photos

1,808,651 photos uploaded!

WunderBlogs® & News

Nearby

Air Quality

  Air Quality AQ Index Pollutant
Not available.

Snow Depth

Station Depth Elevation

Earthquake Activity

City Distance Mag. Time & Date
Minimum magnitude displayed is 2.5.

Coastal Water Temperatures

Place Temperature

Stations

Nearby Weather Stations

Station Location Temp. Windchill Dew Point Humidity Wind Precip. Elev Updated Type